createdAt,value
2023-04-15T00:00:37.360Z,6.60
2023-04-15T00:03:06.377Z,7.88
2023-04-15T00:05:34.343Z,6.50
2023-04-15T00:08:02.868Z,6.22
2023-04-15T00:10:32.146Z,5.70
2023-04-15T00:13:00.051Z,5.70
2023-04-15T00:15:28.212Z,5.00
2023-04-15T00:17:56.063Z,6.63
2023-04-15T00:20:24.082Z,6.30
2023-04-15T00:22:52.308Z,5.85
2023-04-15T00:25:20.120Z,6.53
2023-04-15T00:27:49.615Z,5.40
2023-04-15T00:30:17.339Z,5.57
2023-04-15T00:32:45.180Z,5.57
2023-04-15T00:35:15.404Z,5.80
2023-04-15T00:37:44.850Z,5.47
2023-04-15T00:40:14.857Z,6.82
2023-04-15T00:42:42.643Z,5.78
2023-04-15T00:45:12.912Z,6.93
2023-04-15T00:47:43.279Z,5.50
2023-04-15T00:50:11.550Z,5.28
2023-04-15T00:52:39.840Z,6.38
2023-04-15T00:55:09.219Z,7.80
2023-04-15T00:57:37.467Z,5.50
2023-04-15T01:00:08.016Z,7.18
2023-04-15T01:02:37.628Z,5.40
2023-04-15T01:05:06.331Z,5.68
2023-04-15T01:07:34.198Z,8.63
2023-04-15T01:10:04.356Z,6.88
2023-04-15T01:12:34.266Z,5.85
2023-04-15T01:15:02.865Z,5.47
2023-04-15T01:17:31.174Z,5.60
2023-04-15T01:20:01.101Z,6.32
2023-04-15T01:22:31.506Z,6.43
2023-04-15T01:25:08.165Z,6.95
2023-04-15T01:27:40.932Z,5.82
2023-04-15T01:30:10.630Z,6.93
2023-04-15T01:32:39.153Z,7.72
2023-04-15T01:35:07.762Z,6.35
2023-04-15T01:37:35.910Z,7.03
2023-04-15T01:40:03.827Z,6.80
2023-04-15T01:42:32.946Z,6.55
2023-04-15T01:45:02.110Z,6.15
2023-04-15T01:47:30.104Z,6.80
2023-04-15T01:49:57.964Z,6.82
2023-04-15T01:52:26.126Z,6.18
2023-04-15T01:54:53.941Z,7.03
2023-04-15T01:57:21.977Z,6.75
2023-04-15T01:59:49.807Z,6.30
2023-04-15T02:02:19.007Z,6.32
2023-04-15T02:04:46.844Z,8.23
2023-04-15T02:07:14.595Z,6.60
2023-04-15T02:09:43.470Z,5.43
2023-04-15T02:12:11.345Z,6.35
2023-04-15T02:14:39.249Z,7.32
2023-04-15T02:17:08.492Z,6.15
2023-04-15T02:19:39.393Z,5.97
2023-04-15T02:22:09.248Z,7.47
2023-04-15T02:24:37.114Z,5.90
2023-04-15T02:27:05.037Z,6.43
2023-04-15T02:29:33.309Z,6.70
2023-04-15T02:32:02.164Z,7.05
2023-04-15T02:34:30.482Z,6.82
2023-04-15T02:37:00.101Z,6.43
2023-04-15T02:39:28.782Z,6.75
2023-04-15T02:41:56.873Z,7.53
2023-04-15T02:44:25.043Z,7.65
2023-04-15T02:46:58.317Z,7.65
2023-04-15T02:49:26.549Z,6.38
2023-04-15T02:51:55.404Z,7.13
2023-04-15T02:54:25.891Z,7.63
2023-04-15T02:56:55.331Z,6.60
2023-04-15T02:59:23.798Z,5.90
2023-04-15T03:01:51.648Z,6.60
2023-04-15T03:04:19.650Z,6.70
2023-04-15T03:06:47.568Z,7.95
2023-04-15T03:09:15.697Z,8.43
2023-04-15T03:11:46.002Z,8.48
2023-04-15T03:14:13.823Z,8.63
2023-04-15T03:16:45.307Z,7.07
2023-04-15T03:19:15.581Z,6.68
2023-04-15T03:21:44.544Z,7.78
2023-04-15T03:24:12.489Z,7.60
2023-04-15T03:26:40.439Z,9.35
2023-04-15T03:29:15.177Z,8.07
2023-04-15T03:31:43.268Z,8.73
2023-04-15T03:34:12.020Z,7.60
2023-04-15T03:36:39.809Z,6.40
2023-04-15T03:39:08.041Z,7.20
2023-04-15T03:41:36.103Z,7.03
2023-04-15T03:44:03.907Z,7.22
2023-04-15T03:46:33.260Z,7.63
2023-04-15T03:49:01.292Z,7.18
2023-04-15T03:51:29.318Z,7.03
2023-04-15T03:54:00.226Z,8.15
2023-04-15T03:56:28.154Z,6.63
2023-04-15T03:58:56.144Z,5.93
2023-04-15T04:01:24.029Z,5.88
2023-04-15T04:03:53.339Z,7.35
2023-04-15T04:06:21.541Z,8.07
2023-04-15T04:08:49.297Z,7.78
2023-04-15T04:11:17.277Z,6.47
2023-04-15T04:13:45.154Z,6.43
2023-04-15T04:16:13.131Z,7.63
2023-04-15T04:18:40.956Z,6.68
2023-04-15T04:21:10.228Z,6.60
2023-04-15T04:23:38.147Z,9.35
2023-04-15T04:26:06.159Z,7.93
2023-04-15T04:28:35.397Z,8.82
2023-04-15T04:31:03.342Z,7.53
2023-04-15T04:33:31.124Z,6.55
2023-04-15T04:36:01.855Z,8.63
2023-04-15T04:38:31.049Z,8.02
2023-04-15T04:40:58.936Z,6.75
2023-04-15T04:43:27.044Z,6.75
2023-04-15T04:45:57.326Z,7.07
2023-04-15T04:48:25.116Z,6.68
2023-04-15T04:50:55.991Z,6.50
2023-04-15T04:53:23.770Z,7.68
2023-04-15T04:55:53.049Z,6.68
2023-04-15T04:58:21.363Z,6.32
2023-04-15T05:00:49.157Z,7.43
2023-04-15T05:03:17.420Z,5.80
2023-04-15T05:05:48.750Z,6.28
2023-04-15T05:08:18.225Z,8.52
2023-04-15T05:10:46.037Z,6.93
2023-04-15T05:13:15.471Z,7.00
2023-04-15T05:15:43.348Z,7.40
2023-04-15T05:18:11.155Z,6.20
2023-04-15T05:20:39.394Z,7.55
2023-04-15T05:23:07.270Z,8.27
2023-04-15T05:25:37.157Z,7.55
2023-04-15T05:28:04.882Z,7.95
2023-04-15T05:30:34.212Z,7.32
2023-04-15T05:33:02.101Z,6.97
2023-04-15T05:35:29.875Z,5.35
2023-04-15T05:37:57.815Z,6.63
2023-04-15T05:40:27.465Z,6.57
2023-04-15T05:42:55.451Z,6.25
2023-04-15T05:45:23.213Z,7.70
2023-04-15T05:47:54.386Z,7.18
2023-04-15T05:50:22.298Z,7.07
2023-04-15T05:52:50.284Z,7.32
2023-04-15T05:55:18.160Z,7.53
2023-04-15T05:57:45.906Z,6.10
2023-04-15T06:00:15.307Z,8.52
2023-04-15T06:02:43.449Z,7.97
2023-04-15T06:05:12.937Z,7.93
2023-04-15T06:07:41.093Z,7.03
2023-04-15T06:10:09.873Z,7.00
2023-04-15T06:12:37.670Z,6.85
2023-04-15T06:15:06.681Z,7.65
2023-04-15T06:17:34.531Z,6.95
2023-04-15T06:20:02.505Z,7.45
2023-04-15T06:22:31.696Z,9.10
2023-04-15T06:24:59.625Z,8.02
2023-04-15T06:27:27.389Z,7.63
2023-04-15T06:29:55.164Z,6.70
2023-04-15T06:32:22.955Z,7.53
2023-04-15T06:34:50.730Z,11.00
2023-04-15T06:37:18.692Z,7.82
2023-04-15T06:39:47.888Z,8.80
2023-04-15T06:42:16.156Z,8.50
2023-04-15T06:44:44.089Z,8.77
2023-04-15T06:47:13.059Z,8.20
2023-04-15T06:49:41.291Z,7.80
2023-04-15T06:52:09.317Z,8.85
2023-04-15T06:54:37.132Z,8.38
2023-04-15T06:57:07.091Z,8.13
2023-04-15T06:59:34.879Z,8.13
2023-04-15T07:02:02.834Z,9.43
2023-04-15T07:04:30.772Z,7.00
2023-04-15T07:07:00.022Z,8.27
2023-04-15T07:09:27.817Z,7.75
2023-04-15T07:11:55.730Z,7.07
2023-04-15T07:14:25.092Z,6.65
2023-04-15T07:16:52.999Z,7.10
2023-04-15T07:19:20.992Z,5.70
2023-04-15T07:21:49.017Z,5.85
2023-04-15T07:24:18.236Z,5.70
2023-04-15T07:26:46.334Z,6.63
2023-04-15T07:29:14.129Z,5.18
2023-04-15T07:31:43.378Z,5.18
2023-04-15T07:34:11.149Z,5.28
2023-04-15T07:36:38.920Z,5.38
2023-04-15T07:39:06.779Z,5.05
2023-04-15T07:41:34.766Z,6.20
2023-04-15T07:44:04.320Z,6.80
2023-04-15T07:46:32.202Z,8.05
2023-04-15T07:49:01.847Z,6.28
2023-04-15T07:51:30.851Z,5.40
2023-04-15T07:53:58.716Z,5.07
2023-04-15T07:56:27.128Z,5.95
2023-04-15T07:58:54.920Z,5.88
2023-04-15T08:01:22.757Z,7.32
2023-04-15T08:03:50.893Z,4.40
2023-04-15T08:06:20.184Z,4.13
2023-04-15T08:08:48.329Z,4.03
2023-04-15T08:11:16.881Z,4.45
2023-04-15T08:13:44.750Z,4.35
2023-04-15T08:16:19.691Z,4.45
2023-04-15T08:18:47.778Z,4.93
2023-04-15T08:21:16.223Z,4.20
2023-04-15T08:23:45.964Z,4.43
2023-04-15T08:26:14.297Z,4.55
2023-04-15T08:28:43.746Z,4.15
2023-04-15T08:31:11.604Z,4.50
2023-04-15T08:33:39.437Z,4.15
2023-04-15T08:36:07.786Z,4.30
2023-04-15T08:38:36.195Z,4.82
2023-04-15T08:41:08.748Z,4.78
2023-04-15T08:43:39.677Z,5.75
2023-04-15T08:46:08.482Z,5.75
2023-04-15T08:48:40.420Z,5.55
2023-04-15T08:51:09.518Z,5.00
2023-04-15T08:53:38.638Z,5.47
2023-04-15T08:56:10.674Z,4.70
2023-04-15T08:58:39.305Z,5.15
2023-04-15T09:01:07.278Z,5.85
2023-04-15T09:03:36.295Z,4.95
2023-04-15T09:06:05.711Z,5.90
2023-04-15T09:08:34.480Z,6.70
2023-04-15T09:11:02.985Z,5.60
2023-04-15T09:13:32.330Z,5.60
2023-04-15T09:16:03.623Z,3.85
2023-04-15T09:18:33.550Z,4.13
2023-04-15T09:21:09.077Z,4.13
2023-04-15T09:23:37.774Z,4.40
2023-04-15T09:26:06.349Z,4.35
2023-04-15T09:28:42.685Z,5.00
2023-04-15T09:31:11.415Z,4.45
2023-04-15T09:33:56.772Z,4.63
2023-04-15T09:36:25.192Z,4.72
2023-04-15T09:38:57.278Z,4.97
2023-04-15T09:41:26.612Z,5.68
2023-04-15T09:43:55.976Z,4.68
2023-04-15T09:46:42.311Z,3.80
2023-04-15T09:49:11.299Z,3.95
2023-04-15T09:51:39.548Z,2.75
2023-04-15T09:54:07.407Z,2.60
2023-04-15T09:56:37.774Z,2.92
2023-04-15T09:59:07.672Z,2.90
2023-04-15T10:01:36.146Z,2.65
2023-04-15T10:04:05.567Z,2.50
2023-04-15T10:06:34.818Z,2.85
2023-04-15T10:09:03.301Z,3.65
2023-04-15T10:11:32.893Z,3.72
2023-04-15T10:14:02.304Z,2.97
2023-04-15T10:16:33.999Z,3.53
2023-04-15T10:19:04.453Z,3.47
2023-04-15T10:21:33.656Z,3.85
2023-04-15T10:24:03.284Z,3.35
2023-04-15T10:26:31.717Z,3.55
2023-04-15T10:29:01.216Z,3.78
2023-04-15T10:31:31.747Z,3.90
2023-04-15T10:34:04.197Z,4.63
2023-04-15T10:38:59.941Z,4.70
2023-04-15T10:41:31.089Z,4.18
2023-04-15T10:44:03.416Z,4.97
2023-04-15T10:46:39.541Z,4.45
2023-04-15T10:49:12.126Z,4.93
2023-04-15T10:51:42.499Z,4.00
2023-04-15T10:54:14.850Z,4.78
2023-04-15T10:56:44.033Z,3.72
2023-04-15T10:59:12.284Z,4.03
2023-04-15T11:01:56.505Z,3.83
2023-04-15T11:04:53.543Z,5.47
2023-04-15T11:07:42.097Z,3.22
2023-04-15T11:10:54.957Z,3.90
2023-04-15T11:13:28.353Z,2.90
2023-04-15T11:16:01.717Z,3.90
2023-04-15T11:18:32.951Z,3.47
2023-04-15T11:21:03.534Z,3.13
2023-04-15T11:23:37.197Z,3.15
2023-04-15T11:26:09.312Z,3.70
2023-04-15T11:28:39.028Z,3.67
2023-04-15T11:31:10.725Z,3.50
2023-04-15T11:33:47.054Z,2.83
2023-04-15T11:36:15.013Z,3.63
2023-04-15T11:38:48.195Z,3.20
2023-04-15T11:41:16.627Z,3.33
2023-04-15T11:43:44.445Z,3.65
2023-04-15T11:46:12.404Z,4.68
2023-04-15T11:48:44.692Z,3.15
2023-04-15T11:51:13.321Z,2.92
2023-04-15T11:53:43.040Z,3.28
2023-04-15T11:56:12.976Z,4.00
2023-04-15T11:58:40.959Z,3.53
2023-04-15T12:01:08.861Z,4.18
2023-04-15T12:03:44.287Z,3.03
2023-04-15T12:06:19.061Z,4.03
2023-04-15T12:08:57.158Z,3.25
2023-04-15T12:11:31.250Z,3.63
2023-04-15T12:14:03.983Z,4.70
2023-04-15T12:19:02.435Z,3.35
2023-04-15T12:21:35.877Z,2.63
2023-04-15T12:24:05.344Z,3.30
2023-04-15T12:26:38.195Z,3.40
2023-04-15T12:31:35.712Z,2.55
2023-04-15T12:34:08.767Z,3.17
2023-04-15T12:36:37.462Z,3.38
2023-04-15T12:39:06.273Z,2.83
2023-04-15T12:41:34.573Z,3.47
2023-04-15T12:44:02.704Z,3.40
2023-04-15T12:46:31.102Z,3.25
2023-04-15T12:48:59.378Z,2.60
2023-04-15T12:51:28.605Z,3.15
2023-04-15T12:53:56.435Z,2.65
2023-04-15T12:56:24.520Z,2.75
2023-04-15T12:58:52.477Z,3.08
2023-04-15T13:01:20.353Z,3.40
2023-04-15T13:03:48.383Z,4.85
2023-04-15T13:06:16.641Z,4.30
2023-04-15T13:08:57.499Z,4.70
2023-04-15T13:11:26.004Z,4.47
2023-04-15T13:13:53.933Z,4.72
2023-04-15T13:16:21.960Z,4.05
2023-04-15T13:18:49.922Z,3.70
2023-04-15T13:21:19.419Z,3.78
2023-04-15T13:23:49.751Z,4.22
2023-04-15T13:26:17.689Z,3.85
2023-04-15T13:28:46.035Z,4.40
2023-04-15T13:31:13.998Z,4.85
2023-04-15T13:33:41.931Z,4.32
2023-04-15T13:36:10.471Z,3.38
2023-04-15T13:38:38.299Z,3.65
2023-04-15T13:41:07.695Z,4.00
2023-04-15T13:43:35.689Z,3.70
2023-04-15T13:46:03.895Z,3.58
2023-04-15T13:48:31.780Z,3.08
2023-04-15T13:50:59.616Z,3.65
2023-04-15T13:53:33.843Z,3.90
2023-04-15T13:56:09.066Z,4.43
2023-04-15T13:58:37.863Z,4.05
2023-04-15T14:01:07.393Z,4.10
2023-04-15T14:03:36.647Z,4.00
2023-04-15T14:06:05.716Z,3.15
2023-04-15T14:08:33.870Z,3.45
2023-04-15T14:11:02.074Z,3.75
2023-04-15T14:13:31.415Z,5.13
2023-04-15T14:15:59.346Z,3.58
2023-04-15T14:18:27.435Z,3.97
2023-04-15T14:20:55.592Z,4.82
2023-04-15T14:23:23.492Z,5.47
2023-04-15T14:25:51.892Z,4.43
2023-04-15T14:28:19.824Z,4.43
2023-04-15T14:30:49.136Z,4.60
2023-04-15T14:33:17.292Z,5.40
2023-04-15T14:35:45.139Z,4.20
2023-04-15T14:38:13.062Z,4.90
2023-04-15T14:40:42.770Z,4.57
2023-04-15T14:43:10.912Z,4.78
2023-04-15T14:45:40.690Z,3.65
2023-04-15T14:50:41.312Z,3.42
2023-04-15T14:53:09.158Z,4.25
2023-04-15T14:55:36.960Z,5.75
2023-04-15T14:58:04.931Z,4.22
2023-04-15T15:00:32.765Z,4.30
2023-04-15T15:03:00.918Z,4.18
2023-04-15T15:05:30.172Z,4.05
2023-04-15T15:07:58.089Z,4.15
2023-04-15T15:10:38.627Z,4.63
2023-04-15T15:13:14.056Z,4.95
2023-04-15T15:15:42.087Z,4.38
2023-04-15T15:18:10.047Z,3.75
2023-04-15T15:20:39.278Z,3.75
2023-04-15T15:23:07.188Z,3.60
2023-04-15T15:25:35.044Z,3.53
2023-04-15T15:28:03.060Z,3.83
2023-04-15T15:30:31.188Z,4.03
2023-04-15T15:32:59.059Z,3.50
2023-04-15T15:35:27.778Z,4.57
2023-04-15T15:37:57.091Z,3.78
2023-04-15T15:40:28.511Z,4.18
2023-04-15T15:42:56.393Z,3.90
2023-04-15T15:45:24.235Z,4.50
2023-04-15T15:47:52.707Z,4.03
2023-04-15T15:50:21.645Z,4.85
2023-04-15T15:52:49.621Z,4.68
2023-04-15T15:55:18.917Z,4.10
2023-04-15T15:57:46.729Z,5.13
2023-04-15T16:00:15.587Z,3.22
2023-04-15T16:05:15.982Z,3.30
2023-04-15T16:07:43.846Z,3.10
2023-04-15T16:10:13.963Z,3.00
2023-04-15T16:12:43.223Z,3.53
2023-04-15T16:15:12.017Z,3.92
2023-04-15T16:17:40.037Z,4.28
2023-04-15T16:20:08.943Z,3.83
2023-04-15T16:22:37.069Z,4.03
2023-04-15T16:25:05.082Z,4.35
2023-04-15T16:27:33.805Z,3.47
2023-04-15T16:30:04.501Z,3.45
2023-04-15T16:32:32.381Z,3.25
2023-04-15T16:35:00.167Z,2.88
2023-04-15T16:37:27.998Z,3.60
2023-04-15T16:39:55.853Z,2.70
2023-04-15T16:42:23.727Z,5.25
2023-04-15T16:44:51.557Z,2.90
2023-04-15T16:47:20.685Z,3.30
2023-04-15T16:49:48.740Z,3.60
2023-04-15T16:52:16.455Z,3.85
2023-04-15T16:54:44.223Z,4.10
2023-04-15T16:57:11.990Z,3.20
2023-04-15T16:59:39.840Z,3.42
2023-04-15T17:02:10.707Z,2.80
2023-04-15T17:04:40.321Z,2.65
2023-04-15T17:07:08.825Z,3.05
2023-04-15T17:09:36.727Z,4.95
2023-04-15T17:12:05.218Z,2.72
2023-04-15T17:14:33.285Z,4.63
2023-04-15T17:17:01.355Z,3.72
2023-04-15T17:19:29.194Z,3.42
2023-04-15T17:21:58.517Z,3.22
2023-04-15T17:24:26.518Z,3.78
2023-04-15T17:26:54.675Z,3.85
2023-04-15T17:29:22.566Z,3.97
2023-04-15T17:31:50.419Z,3.67
2023-04-15T17:34:18.359Z,3.90
2023-04-15T17:36:46.222Z,3.83
2023-04-15T17:39:15.558Z,4.93
2023-04-15T17:41:43.367Z,3.58
2023-04-15T17:44:11.242Z,3.38
2023-04-15T17:46:39.116Z,3.45
2023-04-15T17:49:07.223Z,4.10
2023-04-15T17:51:35.233Z,4.10
2023-04-15T17:54:09.465Z,4.32
2023-04-15T17:56:38.658Z,5.45
2023-04-15T17:59:06.962Z,4.50
2023-04-15T18:01:34.947Z,3.80
2023-04-15T18:04:03.034Z,3.33
2023-04-15T18:06:31.829Z,4.55
2023-04-15T18:08:59.832Z,5.40
2023-04-15T18:11:27.714Z,3.83
2023-04-15T18:13:56.909Z,4.38
2023-04-15T18:16:24.943Z,3.63
2023-04-15T18:18:52.769Z,3.95
2023-04-15T18:21:20.642Z,3.97
2023-04-15T18:23:48.614Z,4.78
2023-04-15T18:26:16.471Z,4.88
2023-04-15T18:28:44.340Z,4.13
2023-04-15T18:31:13.587Z,4.07
2023-04-15T18:33:41.482Z,4.47
2023-04-15T18:36:09.355Z,5.07
2023-04-15T18:38:37.160Z,4.25
2023-04-15T18:41:05.429Z,4.35
2023-04-15T18:43:33.305Z,5.25
2023-04-15T18:46:01.870Z,4.93
2023-04-15T18:48:31.301Z,5.45
2023-04-15T18:50:59.156Z,4.07
2023-04-15T18:53:27.998Z,5.45
2023-04-15T18:55:56.274Z,3.83
2023-04-15T18:58:24.138Z,5.10
2023-04-15T19:00:51.991Z,6.07
2023-04-15T19:03:19.835Z,4.68
2023-04-15T19:05:49.084Z,4.88
2023-04-15T19:08:17.012Z,4.75
2023-04-15T19:10:45.212Z,4.93
2023-04-15T19:13:13.115Z,7.13
2023-04-15T19:15:40.997Z,6.07
2023-04-15T19:18:10.632Z,5.05
2023-04-15T19:20:40.109Z,4.50
2023-04-15T19:23:09.668Z,6.60
2023-04-15T19:25:38.174Z,4.05
2023-04-15T19:28:06.368Z,4.85
2023-04-15T19:30:34.591Z,5.38
2023-04-15T19:33:02.412Z,5.65
2023-04-15T19:35:30.257Z,6.30
2023-04-15T19:37:58.092Z,4.95
2023-04-15T19:40:27.376Z,5.82
2023-04-15T19:42:55.370Z,4.78
2023-04-15T19:45:23.357Z,6.40
2023-04-15T19:47:51.325Z,5.85
2023-04-15T19:50:24.584Z,5.28
2023-04-15T19:52:52.634Z,5.55
2023-04-15T19:55:20.962Z,6.63
2023-04-15T19:57:50.371Z,4.18
2023-04-15T20:00:18.173Z,5.43
2023-04-15T20:02:46.069Z,5.78
2023-04-15T20:05:14.074Z,6.38
2023-04-15T20:07:43.209Z,6.70
2023-04-15T20:10:13.207Z,6.20
2023-04-15T20:12:50.108Z,5.38
2023-04-15T20:15:23.527Z,5.20
2023-04-15T20:17:51.741Z,4.40
2023-04-15T20:20:20.199Z,5.15
2023-04-15T20:22:48.374Z,5.20
2023-04-15T20:25:16.477Z,4.97
2023-04-15T20:27:44.338Z,4.70
2023-04-15T20:30:12.686Z,6.10
2023-04-15T20:32:42.025Z,7.25
2023-04-15T20:35:10.140Z,7.57
2023-04-15T20:37:40.361Z,7.18
2023-04-15T20:40:09.495Z,5.68
2023-04-15T20:42:37.870Z,7.57
2023-04-15T20:45:07.113Z,6.00
2023-04-15T20:47:34.968Z,5.53
2023-04-15T20:50:04.387Z,6.03
2023-04-15T20:52:32.203Z,5.95
2023-04-15T20:55:30.618Z,7.15
2023-04-15T20:57:59.853Z,5.85
2023-04-15T21:00:29.659Z,6.55
2023-04-15T21:03:01.353Z,6.72
2023-04-15T21:05:46.767Z,5.50
2023-04-15T21:08:21.197Z,6.53
2023-04-15T21:10:49.839Z,7.25
2023-04-15T21:13:22.194Z,6.82
2023-04-15T21:15:54.433Z,6.97
2023-04-15T21:18:23.111Z,7.65
2023-04-15T21:20:59.349Z,7.22
2023-04-15T21:23:28.725Z,8.50
2023-04-15T21:25:56.740Z,8.63
2023-04-15T21:28:24.805Z,11.70
2023-04-15T21:30:53.077Z,10.20
2023-04-15T21:33:21.298Z,10.95
2023-04-15T21:35:59.995Z,10.20
2023-04-15T21:38:30.231Z,10.57
2023-04-15T21:40:58.238Z,11.48
2023-04-15T21:43:26.691Z,10.77
2023-04-15T21:46:23.613Z,11.48
2023-04-15T21:48:42.896Z,10.60
2023-04-15T21:51:13.914Z,12.10
2023-04-15T21:53:44.956Z,10.02
2023-04-15T21:56:16.725Z,10.77
2023-04-15T21:58:44.762Z,12.48
2023-04-15T22:01:12.822Z,13.23
2023-04-15T22:03:41.030Z,11.95
2023-04-15T22:06:09.301Z,13.75
2023-04-15T22:08:48.287Z,14.85
2023-04-15T22:11:27.905Z,12.73
2023-04-15T22:13:56.709Z,12.07
2023-04-15T22:16:25.561Z,10.93
2023-04-15T22:18:53.483Z,12.10
2023-04-15T22:21:21.556Z,11.68
2023-04-15T22:23:50.206Z,12.27
2023-04-15T22:26:18.074Z,12.88
2023-04-15T22:28:47.423Z,13.45
2023-04-15T22:31:15.446Z,13.70
2023-04-15T22:33:43.704Z,12.52
2023-04-15T22:36:11.854Z,13.45
2023-04-15T22:38:40.117Z,12.93
2023-04-15T22:41:10.153Z,12.23
2023-04-15T22:43:38.094Z,11.90
2023-04-15T22:46:07.359Z,13.70
2023-04-15T22:48:35.610Z,12.38
2023-04-15T22:51:04.753Z,11.27
2023-04-15T22:53:32.965Z,12.18
2023-04-15T22:56:00.825Z,13.43
2023-04-15T22:58:28.711Z,12.70
2023-04-15T23:00:56.477Z,11.85
2023-04-15T23:03:26.009Z,12.75
2023-04-15T23:05:54.212Z,12.95
2023-04-15T23:08:23.885Z,10.18
2023-04-15T23:10:51.790Z,9.65
2023-04-15T23:13:19.713Z,9.48
2023-04-15T23:15:47.690Z,10.00
2023-04-15T23:18:15.572Z,9.68
2023-04-15T23:20:44.722Z,11.38
2023-04-15T23:23:12.657Z,10.20
2023-04-15T23:25:40.981Z,11.32
2023-04-15T23:28:08.988Z,11.98
2023-04-15T23:30:36.850Z,14.25
2023-04-15T23:33:05.696Z,12.98
2023-04-15T23:35:33.714Z,11.93
2023-04-15T23:38:03.027Z,14.60
2023-04-15T23:40:31.070Z,14.00
2023-04-15T23:42:58.985Z,15.23
2023-04-15T23:45:26.891Z,15.18
2023-04-15T23:47:54.763Z,15.80
2023-04-15T23:50:22.649Z,16.42
2023-04-15T23:52:50.434Z,17.08
2023-04-15T23:55:19.635Z,14.23
2023-04-15T23:57:48.100Z,16.02
